Google Maps JavaScript API Example
Pilot Flight Report # 93042 Submitted by : AST775 on 2019-06-17
Date: 2019-06-17Aircraft: Howard 500
Flight No.: Not AvailableDistance (Nm): 412.18
Departure: TJSJ - Luis Munoz Marin InternationalDestination: TNCC - Willemstad/Hato International.
 TimeFuelWeightSpeeds  
Out (Taxi)0949Z5178 lbs30156 lbs Flight RulesVFR
Off (Takeoff)0949Z 30146 lbs94 ktsFlight Level12500
On (Landing)1115Z 26439 lbs101 ktsVSTD-183 ft/min
In (Ramp)1115Z1458 lbs26439 lbs ZFW24980 lbs
Flight1.40  -  1:263708 lbs  Pax0
Block1.43  -  1:263720 lbs  Cargo0
Departure Weather291003Z 10905KT 24SM -RA SCT030 BKN070 25/23 A2997
Destination WeatherTNCC 291115Z 12112KT 57SM SCT018 28/24 A2988
Flight Commentsjune leg 21 TJSJ-TNCC